Terminal Aerodrome Forecast
Issued by NWS

Home | Current Version | Previous Version | Text Only | Print | Product List | Glossary Off
Versions: 1 2 3 4 5 6 7 8 9 10 11 12 13 14

000
FTUS43 KFGF 280500
TAFBJI
TAF
KBJI 280536Z 2806/2906 32006KT P6SM OVC028
      TEMPO 2806/2810 4SM -SN BR OVC016
     FM281000 32008KT P6SM BKN025
     FM281300 32009KT P6SM SCT030=

USA.gov is the U.S. government's official web portal to all federal, state and local government web resources and services.